createdAt,value
2023-01-12T00:02:38.086Z,97.13
2023-01-12T00:05:41.475Z,96.41
2023-01-12T00:08:44.353Z,96.47
2023-01-12T00:11:47.588Z,96.86
2023-01-12T00:14:53.346Z,97.03
2023-01-12T00:17:57.479Z,98.37
2023-01-12T00:21:00.440Z,98.69
2023-01-12T00:24:06.378Z,99.39
2023-01-12T00:27:11.406Z,99.78
2023-01-12T00:30:15.806Z,100.00
2023-01-12T00:33:20.249Z,100.00
2023-01-12T00:36:23.547Z,100.00
2023-01-12T00:39:27.045Z,100.00
2023-01-12T00:42:48.759Z,100.00
2023-01-12T00:45:51.867Z,100.00
2023-01-12T00:48:55.102Z,99.79
2023-01-12T00:51:59.236Z,98.72
2023-01-12T00:55:02.640Z,100.00
2023-01-12T00:58:06.191Z,100.00
2023-01-12T01:01:09.880Z,100.00
2023-01-12T01:04:13.107Z,100.00
2023-01-12T01:07:17.342Z,100.00
2023-01-12T01:10:20.466Z,100.00
2023-01-12T01:13:23.685Z,100.00
2023-01-12T01:16:26.740Z,100.00
2023-01-12T01:19:29.979Z,100.00
2023-01-12T01:22:33.001Z,100.00
2023-01-12T01:25:36.553Z,100.00
2023-01-12T01:28:40.337Z,100.00
2023-01-12T01:31:43.691Z,100.00
2023-01-12T01:34:48.317Z,100.00
2023-01-12T01:37:52.964Z,100.00
2023-01-12T01:40:56.031Z,91.92
2023-01-12T01:44:05.507Z,94.79
2023-01-12T01:47:11.531Z,93.91
2023-01-12T01:50:19.603Z,96.37
2023-01-12T01:53:24.197Z,98.71
2023-01-12T01:56:31.557Z,99.90
2023-01-12T01:59:36.740Z,99.04
2023-01-12T02:02:41.815Z,93.30
2023-01-12T02:05:47.447Z,93.95
2023-01-12T02:09:00.525Z,95.96
2023-01-12T02:12:22.510Z,94.13
2023-01-12T02:15:47.761Z,92.52
2023-01-12T02:19:03.485Z,92.96
2023-01-12T02:22:18.242Z,95.05
2023-01-12T02:25:47.127Z,97.66
2023-01-12T02:29:05.154Z,98.93
2023-01-12T02:32:39.917Z,98.80
2023-01-12T02:36:18.311Z,99.96
2023-01-12T02:39:30.227Z,100.00
2023-01-12T02:42:42.407Z,100.00
2023-01-12T02:45:53.445Z,100.00
2023-01-12T02:49:04.971Z,100.00
2023-01-12T02:52:12.051Z,100.00
2023-01-12T02:55:16.684Z,100.00
2023-01-12T02:58:21.598Z,100.00
2023-01-12T03:01:24.957Z,100.00
2023-01-12T03:04:28.409Z,100.00
2023-01-12T03:07:35.984Z,100.00
2023-01-12T03:10:58.105Z,100.00
2023-01-12T03:14:03.279Z,100.00
2023-01-12T03:17:10.316Z,100.00
2023-01-12T03:20:24.772Z,100.00
2023-01-12T03:23:32.864Z,100.00
2023-01-12T03:26:40.588Z,100.00
2023-01-12T03:29:57.031Z,100.00
2023-01-12T03:33:00.454Z,100.00
2023-01-12T03:36:52.887Z,100.00
2023-01-12T03:40:00.693Z,100.00
2023-01-12T03:43:10.593Z,100.00
2023-01-12T03:46:23.508Z,100.00
2023-01-12T03:49:33.917Z,100.00
2023-01-12T03:52:39.595Z,100.00
2023-01-12T03:55:43.739Z,100.00
2023-01-12T03:58:48.155Z,100.00
2023-01-12T04:01:51.737Z,100.00
2023-01-12T04:04:55.049Z,100.00
2023-01-12T04:07:58.029Z,100.00
2023-01-12T04:11:21.656Z,100.00
2023-01-12T04:14:24.712Z,100.00
2023-01-12T04:17:29.356Z,100.00
2023-01-12T04:20:33.107Z,100.00
2023-01-12T04:23:36.255Z,100.00
2023-01-12T04:26:39.229Z,100.00
2023-01-12T04:29:43.407Z,100.00
2023-01-12T04:32:46.621Z,100.00
2023-01-12T04:35:49.962Z,100.00
2023-01-12T04:38:53.106Z,100.00
2023-01-12T04:41:57.616Z,100.00
2023-01-12T04:45:00.641Z,100.00
2023-01-12T04:48:11.047Z,100.00
2023-01-12T04:51:14.859Z,100.00
2023-01-12T04:54:18.067Z,100.00
2023-01-12T04:57:21.471Z,100.00
2023-01-12T05:00:25.453Z,100.00
2023-01-12T05:03:28.869Z,100.00
2023-01-12T05:06:32.552Z,100.00
2023-01-12T05:09:57.517Z,100.00
2023-01-12T05:13:00.747Z,100.00
2023-01-12T05:16:15.705Z,100.00
2023-01-12T05:19:19.140Z,100.00
2023-01-12T05:22:22.146Z,100.00
2023-01-12T05:25:26.986Z,100.00
2023-01-12T05:28:30.458Z,100.00
2023-01-12T05:31:35.203Z,100.00
2023-01-12T05:34:40.049Z,100.00
2023-01-12T05:37:43.339Z,100.00
2023-01-12T05:40:46.312Z,100.00
2023-01-12T05:43:50.709Z,100.00
2023-01-12T05:46:53.955Z,100.00
2023-01-12T05:49:57.494Z,100.00
2023-01-12T05:53:00.451Z,100.00
2023-01-12T05:56:07.813Z,100.00
2023-01-12T05:59:11.249Z,100.00
2023-01-12T06:02:17.742Z,100.00
2023-01-12T06:05:21.258Z,100.00
2023-01-12T06:08:25.618Z,100.00
2023-01-12T06:11:47.467Z,100.00
2023-01-12T06:15:14.381Z,100.00
2023-01-12T06:18:18.918Z,100.00
2023-01-12T06:21:22.258Z,100.00
2023-01-12T06:24:28.409Z,100.00
2023-01-12T06:27:33.324Z,100.00
2023-01-12T06:30:41.433Z,100.00
2023-01-12T06:33:44.339Z,100.00
2023-01-12T06:36:49.564Z,100.00
2023-01-12T06:39:53.080Z,100.00
2023-01-12T06:42:56.273Z,100.00
2023-01-12T06:45:59.681Z,100.00
2023-01-12T06:49:02.926Z,100.00
2023-01-12T06:52:07.032Z,100.00
2023-01-12T06:55:10.313Z,100.00
2023-01-12T06:58:13.274Z,100.00
2023-01-12T07:01:17.202Z,100.00
2023-01-12T07:04:20.674Z,100.00
2023-01-12T07:07:23.903Z,100.00
2023-01-12T07:10:27.266Z,100.00
2023-01-12T07:13:31.871Z,100.00
2023-01-12T07:16:35.577Z,100.00
2023-01-12T07:19:40.844Z,100.00
2023-01-12T07:22:44.632Z,100.00
2023-01-12T07:25:48.195Z,100.00
2023-01-12T07:28:51.131Z,100.00
2023-01-12T07:31:54.471Z,100.00
2023-01-12T07:34:57.498Z,100.00
2023-01-12T07:38:00.739Z,100.00
2023-01-12T07:41:04.043Z,100.00
2023-01-12T07:44:07.321Z,100.00
2023-01-12T07:47:10.323Z,100.00
2023-01-12T07:50:13.444Z,100.00
2023-01-12T07:53:16.063Z,100.00
2023-01-12T07:56:19.447Z,100.00
2023-01-12T07:59:23.422Z,100.00
2023-01-12T08:02:26.684Z,100.00
2023-01-12T08:05:30.791Z,100.00
2023-01-12T08:08:34.063Z,100.00
2023-01-12T08:11:38.247Z,100.00
2023-01-12T08:14:42.106Z,100.00
2023-01-12T08:17:59.775Z,100.00
2023-01-12T08:21:05.782Z,100.00
2023-01-12T08:24:09.686Z,100.00
2023-01-12T08:27:13.760Z,100.00
2023-01-12T08:30:19.324Z,100.00
2023-01-12T08:33:22.375Z,100.00
2023-01-12T08:36:28.851Z,100.00
2023-01-12T08:39:31.879Z,100.00
2023-01-12T08:42:35.110Z,100.00
2023-01-12T08:45:38.167Z,100.00
2023-01-12T08:48:41.541Z,100.00
2023-01-12T08:51:44.933Z,100.00
2023-01-12T08:54:49.716Z,100.00
2023-01-12T08:57:52.801Z,100.00
2023-01-12T09:00:56.209Z,100.00
2023-01-12T09:04:00.047Z,100.00
2023-01-12T09:07:03.447Z,100.00
2023-01-12T09:10:07.164Z,100.00
2023-01-12T09:13:15.671Z,100.00
2023-01-12T09:16:19.829Z,100.00
2023-01-12T09:19:23.298Z,100.00
2023-01-12T09:22:26.663Z,100.00
2023-01-12T09:25:30.132Z,100.00
2023-01-12T09:28:35.147Z,100.00
2023-01-12T09:31:38.948Z,100.00
2023-01-12T09:34:42.399Z,100.00
2023-01-12T09:37:46.383Z,100.00
2023-01-12T09:40:49.393Z,100.00
2023-01-12T09:44:11.164Z,100.00
2023-01-12T09:47:44.888Z,100.00
2023-01-12T09:51:12.830Z,100.00
2023-01-12T09:54:15.973Z,100.00
2023-01-12T09:57:37.889Z,100.00
2023-01-12T10:00:40.804Z,100.00
2023-01-12T10:03:44.159Z,100.00
2023-01-12T10:06:47.135Z,100.00
2023-01-12T10:09:51.116Z,100.00
2023-01-12T10:13:01.694Z,100.00
2023-01-12T10:16:10.950Z,100.00
2023-01-12T10:19:52.998Z,100.00
2023-01-12T10:23:08.069Z,100.00
2023-01-12T10:26:20.461Z,100.00
2023-01-12T10:29:24.091Z,100.00
2023-01-12T10:32:31.339Z,100.00
2023-01-12T10:36:07.859Z,100.00
2023-01-12T10:39:46.581Z,100.00
2023-01-12T10:43:20.977Z,100.00
2023-01-12T10:46:27.113Z,100.00
2023-01-12T10:49:30.422Z,100.00
2023-01-12T10:52:39.298Z,100.00
2023-01-12T10:55:43.404Z,100.00
2023-01-12T10:58:53.114Z,100.00
2023-01-12T11:01:59.386Z,100.00
2023-01-12T11:05:02.222Z,100.00
2023-01-12T11:08:27.686Z,100.00
2023-01-12T11:11:33.510Z,100.00
2023-01-12T11:14:38.294Z,100.00
2023-01-12T11:18:00.315Z,100.00
2023-01-12T11:21:08.243Z,100.00
2023-01-12T11:24:33.337Z,100.00
2023-01-12T11:27:43.254Z,100.00
2023-01-12T11:30:59.051Z,100.00
2023-01-12T11:34:05.606Z,100.00
2023-01-12T11:37:13.478Z,100.00
2023-01-12T11:40:22.820Z,100.00
2023-01-12T11:43:49.912Z,100.00
2023-01-12T11:47:02.779Z,100.00
2023-01-12T11:50:14.535Z,100.00
2023-01-12T11:53:22.205Z,100.00
2023-01-12T11:56:53.365Z,100.00
2023-01-12T12:00:13.578Z,100.00
2023-01-12T12:03:38.944Z,100.00
2023-01-12T12:07:00.928Z,100.00
2023-01-12T12:10:16.001Z,100.00
2023-01-12T12:13:42.671Z,100.00
2023-01-12T12:16:52.763Z,100.00
2023-01-12T12:19:55.745Z,100.00
2023-01-12T12:23:29.828Z,100.00
2023-01-12T12:26:36.196Z,100.00
2023-01-12T12:30:01.176Z,100.00
2023-01-12T12:33:44.137Z,100.00
2023-01-12T12:36:53.916Z,100.00
2023-01-12T12:40:17.467Z,100.00
2023-01-12T12:43:53.823Z,100.00
2023-01-12T12:47:24.905Z,99.90
2023-01-12T12:51:02.807Z,98.27
2023-01-12T12:54:07.317Z,95.22
2023-01-12T12:57:11.166Z,93.52
2023-01-12T13:00:42.902Z,82.52
2023-01-12T13:03:47.093Z,69.30
2023-01-12T13:06:50.420Z,69.23
2023-01-12T13:10:04.491Z,71.65
2023-01-12T13:13:24.823Z,74.74
2023-01-12T13:16:29.570Z,78.59
2023-01-12T13:19:38.772Z,79.90
2023-01-12T13:22:41.926Z,78.44
2023-01-12T13:25:56.697Z,75.29
2023-01-12T13:29:38.765Z,77.90
2023-01-12T13:32:43.727Z,84.48
2023-01-12T13:35:47.024Z,86.55
2023-01-12T13:38:56.852Z,90.17
2023-01-12T13:42:18.785Z,93.58
2023-01-12T13:45:22.541Z,95.04
2023-01-12T13:48:26.942Z,96.87
2023-01-12T13:51:40.026Z,95.58
2023-01-12T13:54:49.547Z,95.67
2023-01-12T13:58:16.999Z,95.00
2023-01-12T14:01:28.387Z,91.25
2023-01-12T14:04:37.811Z,79.39
2023-01-12T14:07:53.067Z,69.41
2023-01-12T14:11:03.388Z,64.58
2023-01-12T14:14:46.035Z,58.63
2023-01-12T14:17:49.386Z,57.46
2023-01-12T14:20:59.704Z,61.12
2023-01-12T14:24:17.300Z,64.44
2023-01-12T14:27:26.147Z,68.26
2023-01-12T14:30:31.452Z,65.25
2023-01-12T14:33:37.091Z,63.61
2023-01-12T14:36:44.602Z,60.63
2023-01-12T14:39:47.788Z,60.43
2023-01-12T14:43:09.962Z,63.23
2023-01-12T14:46:31.141Z,67.58
2023-01-12T14:49:37.072Z,69.82
2023-01-12T14:52:42.179Z,73.79
2023-01-12T14:58:48.845Z,77.37
2023-01-12T15:01:53.301Z,81.88
2023-01-12T15:05:01.210Z,82.34
2023-01-12T15:08:22.383Z,86.32
2023-01-12T15:11:35.137Z,87.89
2023-01-12T15:14:38.355Z,89.03
2023-01-12T15:17:59.612Z,90.61
2023-01-12T15:21:22.424Z,91.29
2023-01-12T15:24:46.631Z,91.72
2023-01-12T15:27:49.885Z,92.85
2023-01-12T15:30:55.798Z,94.47
2023-01-12T15:34:00.757Z,94.87
2023-01-12T15:37:05.531Z,95.64
2023-01-12T15:40:12.290Z,97.72
2023-01-12T15:43:17.473Z,97.24
2023-01-12T15:46:21.470Z,97.23
2023-01-12T15:49:24.196Z,98.47
2023-01-12T15:52:27.301Z,100.00
2023-01-12T15:55:36.214Z,100.00
2023-01-12T15:58:39.313Z,100.00
2023-01-12T16:01:44.538Z,100.00
2023-01-12T16:04:48.031Z,100.00
2023-01-12T16:07:51.083Z,100.00
2023-01-12T16:11:09.463Z,100.00
2023-01-12T16:14:13.641Z,100.00
2023-01-12T16:17:17.904Z,100.00
2023-01-12T16:20:21.110Z,100.00
2023-01-12T16:23:24.631Z,100.00
2023-01-12T16:26:28.784Z,100.00
2023-01-12T16:29:32.176Z,100.00
2023-01-12T16:32:35.355Z,100.00
2023-01-12T16:35:38.563Z,100.00
2023-01-12T16:38:41.792Z,100.00
2023-01-12T16:41:45.037Z,100.00
2023-01-12T16:44:49.124Z,100.00
2023-01-12T16:47:56.890Z,100.00
2023-01-12T16:51:00.233Z,100.00
2023-01-12T16:54:04.885Z,100.00
2023-01-12T16:57:12.303Z,100.00
2023-01-12T17:00:16.507Z,100.00
2023-01-12T17:03:20.140Z,100.00
2023-01-12T17:06:25.864Z,100.00
2023-01-12T17:09:28.730Z,100.00
2023-01-12T17:12:33.473Z,100.00
2023-01-12T17:15:36.566Z,100.00
2023-01-12T17:18:40.304Z,100.00
2023-01-12T17:21:43.944Z,99.46
2023-01-12T17:24:47.478Z,99.32
2023-01-12T17:27:50.610Z,98.84
2023-01-12T17:30:53.896Z,99.08
2023-01-12T17:33:56.820Z,98.83
2023-01-12T17:37:04.250Z,98.03
2023-01-12T17:40:07.855Z,97.89
2023-01-12T17:43:14.733Z,97.67
2023-01-12T17:46:20.914Z,97.42
2023-01-12T17:49:24.566Z,97.16
2023-01-12T17:52:28.116Z,97.73
2023-01-12T17:55:31.798Z,98.30
2023-01-12T17:58:34.785Z,98.30
2023-01-12T18:01:38.130Z,99.18
2023-01-12T18:04:41.651Z,98.82
2023-01-12T18:07:44.828Z,99.14
2023-01-12T18:10:49.407Z,99.27
2023-01-12T18:13:52.416Z,99.05
2023-01-12T18:16:57.849Z,98.74
2023-01-12T18:20:01.695Z,98.13
2023-01-12T18:23:05.161Z,97.48
2023-01-12T18:26:11.897Z,97.97
2023-01-12T18:29:16.776Z,98.32
2023-01-12T18:32:20.306Z,97.98
2023-01-12T18:35:23.854Z,97.14
2023-01-12T18:38:27.821Z,97.77
2023-01-12T18:41:49.615Z,98.20
2023-01-12T18:44:52.936Z,98.51
2023-01-12T18:48:15.473Z,100.00
2023-01-12T18:51:37.220Z,100.00
2023-01-12T18:54:51.896Z,100.00
2023-01-12T18:57:55.684Z,100.00
2023-01-12T19:01:15.394Z,100.00
2023-01-12T19:04:29.128Z,100.00
2023-01-12T19:07:41.169Z,100.00
2023-01-12T19:10:44.330Z,100.00
2023-01-12T19:14:06.484Z,99.90
2023-01-12T19:17:29.672Z,98.22
2023-01-12T19:20:36.067Z,96.53
2023-01-12T19:23:57.944Z,95.26
2023-01-12T19:27:21.188Z,93.91
2023-01-12T19:30:24.607Z,92.66
2023-01-12T19:33:28.748Z,91.26
2023-01-12T19:36:32.484Z,90.67
2023-01-12T19:40:00.695Z,90.76
2023-01-12T19:43:13.229Z,90.45
2023-01-12T19:46:18.212Z,90.87
2023-01-12T19:49:22.112Z,90.49
2023-01-12T19:52:26.540Z,90.40
2023-01-12T19:55:31.690Z,90.04
2023-01-12T19:58:35.881Z,90.34
2023-01-12T20:01:41.301Z,90.47
2023-01-12T20:04:47.492Z,90.74
2023-01-12T20:07:53.650Z,90.85
2023-01-12T20:11:03.288Z,91.54
2023-01-12T20:14:10.181Z,92.07
2023-01-12T20:17:21.099Z,93.73
2023-01-12T20:20:29.595Z,94.61
2023-01-12T20:23:33.531Z,94.49
2023-01-12T20:26:37.072Z,94.14
2023-01-12T20:29:41.105Z,94.14
2023-01-12T20:32:45.004Z,93.91
2023-01-12T20:35:49.959Z,94.20
2023-01-12T20:38:53.237Z,94.50
2023-01-12T20:41:58.031Z,94.37
2023-01-12T20:45:03.026Z,93.99
2023-01-12T20:48:06.813Z,93.16
2023-01-12T20:51:12.399Z,91.70
2023-01-12T20:54:20.863Z,91.78
2023-01-12T20:57:24.680Z,90.83
2023-01-12T21:00:32.038Z,90.25
2023-01-12T21:03:35.319Z,90.34
2023-01-12T21:06:42.493Z,90.14
2023-01-12T21:09:45.472Z,89.63
2023-01-12T21:12:49.043Z,89.98
2023-01-12T21:15:59.627Z,89.74
2023-01-12T21:19:03.973Z,89.32
2023-01-12T21:22:06.963Z,88.16
2023-01-12T21:25:10.884Z,87.50
2023-01-12T21:28:14.465Z,88.26
2023-01-12T21:31:17.783Z,88.09
2023-01-12T21:34:20.928Z,88.27
2023-01-12T21:37:24.343Z,88.04
2023-01-12T21:40:27.379Z,87.56
2023-01-12T21:43:31.252Z,87.51
2023-01-12T21:46:34.310Z,88.52
2023-01-12T21:49:37.691Z,88.59
2023-01-12T21:52:41.667Z,89.09
2023-01-12T21:55:56.723Z,88.76
2023-01-12T21:58:59.714Z,89.59
2023-01-12T22:02:03.064Z,89.68
2023-01-12T22:05:06.692Z,89.92
2023-01-12T22:08:11.185Z,90.13
2023-01-12T22:11:15.834Z,90.56
2023-01-12T22:14:19.081Z,90.50
2023-01-12T22:17:22.565Z,90.30
2023-01-12T22:20:27.882Z,90.56
2023-01-12T22:23:31.558Z,90.57
2023-01-12T22:26:34.444Z,91.02
2023-01-12T22:29:38.087Z,91.17
2023-01-12T22:32:41.537Z,91.14
2023-01-12T22:35:45.137Z,91.86
2023-01-12T22:38:48.058Z,91.60
2023-01-12T22:41:52.920Z,91.65
2023-01-12T22:44:57.111Z,91.73
2023-01-12T22:48:00.369Z,91.31
2023-01-12T22:51:03.474Z,91.77
2023-01-12T22:54:06.797Z,91.83
2023-01-12T22:57:09.882Z,91.75
2023-01-12T23:00:13.703Z,91.97
2023-01-12T23:03:16.831Z,92.25
2023-01-12T23:06:25.819Z,92.36
2023-01-12T23:09:28.823Z,92.42
2023-01-12T23:12:32.150Z,92.94
2023-01-12T23:15:39.290Z,93.35
2023-01-12T23:18:43.864Z,93.49
2023-01-12T23:21:48.886Z,93.80
2023-01-12T23:24:52.198Z,94.26
2023-01-12T23:27:55.475Z,95.05
2023-01-12T23:31:06.779Z,95.03
2023-01-12T23:34:10.052Z,95.15
2023-01-12T23:37:13.362Z,94.57
2023-01-12T23:40:16.886Z,94.66
2023-01-12T23:43:21.092Z,94.87
2023-01-12T23:46:24.690Z,94.75
2023-01-12T23:49:29.100Z,94.83
2023-01-12T23:52:32.348Z,95.20
2023-01-12T23:55:39.963Z,95.29
2023-01-12T23:58:45.543Z,95.16
